Time;durP1;ratioP1;P1;durP2;ratioP2;P2;SDS_P1;SDS_P2;PMS_P1;PMS_P2;Temp;Humidity;BMP_temperature;BMP_pressure;BME280_temperature;BME280_humidity;BME280_pressure;Samples;Min_cycle;Max_cycle;Signal;HPM_P1;HPM_P2
2023/07/26 00:01:37;;;;;;;5.93;5.63;;;;;;;12.87;98.70;100514.56;6168000;23;20028;-71
2023/07/26 00:04:07;;;;;;;5.55;5.25;;;;;;;12.89;98.71;100513.53;6152818;23;21209;-70
2023/07/26 00:06:34;;;;;;;5.80;5.50;;;;;;;12.91;99.13;100516.06;6167297;23;20020;-71
2023/07/26 00:09:00;;;;;;;5.88;5.50;;;;;;;12.93;98.97;100516.81;6169725;23;20020;-70
2023/07/26 00:11:27;;;;;;;5.45;5.10;;;;;;;12.95;98.14;100513.13;6152131;23;20470;-71
2023/07/26 00:13:53;;;;;;;6.00;5.60;;;;;;;12.95;98.32;100514.94;6164926;23;20027;-72
2023/07/26 00:16:19;;;;;;;5.45;5.15;;;;;;;12.90;97.67;100502.03;6136583;23;20028;-70
2023/07/26 00:18:46;;;;;;;5.75;5.45;;;;;;;13.01;97.80;100511.91;6137652;23;20494;-70
2023/07/26 00:21:12;;;;;;;14.90;5.82;;;;;;;12.86;97.74;100502.34;6171142;23;20032;-69
2023/07/26 00:23:39;;;;;;;8.65;5.82;;;;;;;13.03;97.57;100517.03;6167088;23;20035;-68
2023/07/26 00:26:05;;;;;;;5.60;5.28;;;;;;;12.82;97.97;100491.16;6147982;23;20025;-69
2023/07/26 00:28:31;;;;;;;5.55;5.25;;;;;;;11.91;97.52;100351.41;6171725;23;20024;-69
2023/07/26 00:30:58;;;;;;;5.65;5.35;;;;;;;12.61;97.29;100450.41;6172661;23;20044;-70
2023/07/26 00:33:24;;;;;;;6.30;5.80;;;;;;;12.06;97.37;100360.09;6169530;23;20028;-71
2023/07/26 00:35:51;;;;;;;5.90;5.50;;;;;;;13.10;97.20;100528.88;6142698;23;20130;-69
2023/07/26 00:38:17;;;;;;;6.32;5.72;;;;;;;13.12;97.00;100533.09;6167889;23;20008;-69
2023/07/26 00:40:43;;;;;;;5.70;5.40;;;;;;;13.09;96.03;100521.91;6156344;23;20025;-69
2023/07/26 00:43:10;;;;;;;8.27;5.70;;;;;;;12.99;96.30;100516.44;6169977;23;20037;-69
2023/07/26 00:45:39;;;;;;;5.93;5.53;;;;;;;12.97;95.76;100513.88;6143810;23;20099;-69
2023/07/26 00:48:09;;;;;;;7.65;5.82;;;;;;;13.05;96.24;100528.31;6169109;23;20040;-69
2023/07/26 00:50:37;;;;;;;6.00;5.60;;;;;;;13.05;95.88;100539.72;6143745;23;20078;-69
2023/07/26 00:53:04;;;;;;;5.72;5.40;;;;;;;13.04;96.37;100543.28;6162770;23;20036;-70
2023/07/26 00:55:33;;;;;;;5.35;5.10;;;;;;;13.06;96.56;100551.09;6142192;23;20403;-70
2023/07/26 00:58:00;;;;;;;6.88;5.68;;;;;;;12.93;97.24;100532.63;6190384;23;20040;-69
2023/07/26 01:00:27;;;;;;;5.65;5.25;;;;;;;13.03;97.71;100552.16;6149472;23;20040;-69
2023/07/26 01:02:53;;;;;;;5.60;5.30;;;;;;;12.95;98.61;100549.19;6164006;23;20016;-69
2023/07/26 01:05:22;;;;;;;5.97;5.40;;;;;;;12.62;98.39;100504.78;6144420;23;20024;-69
2023/07/26 01:08:06;;;;;;;5.95;5.57;;;;;;;12.62;98.26;100510.88;6164067;23;20035;-70
2023/07/26 01:10:40;;;;;;;5.75;5.43;;;;;;;12.95;98.10;100565.81;6190577;23;20013;-70
2023/07/26 01:13:20;;;;;;;7.45;6.50;;;;;;;12.97;98.50;100557.81;6131327;23;20032;-70
2023/07/26 01:15:48;;;;;;;6.03;5.63;;;;;;;12.67;98.50;100527.25;6173020;23;20090;-69
2023/07/26 01:18:17;;;;;;;11.75;5.88;;;;;;;12.98;98.63;100586.69;6146647;23;20335;-70
2023/07/26 01:20:44;;;;;;;5.80;5.40;;;;;;;12.94;99.56;100566.75;6172029;23;20035;-70
2023/07/26 01:23:11;;;;;;;5.75;5.22;;;;;;;12.52;98.63;100496.63;6172816;23;20611;-69
2023/07/26 01:25:37;;;;;;;5.72;5.32;;;;;;;11.79;99.34;100400.31;6170293;23;20492;-71
2023/07/26 01:28:04;;;;;;;5.50;5.20;;;;;;;12.65;99.63;100526.50;6172623;23;20031;-70
2023/07/26 01:30:33;;;;;;;5.93;5.40;;;;;;;12.93;99.97;100569.50;6167706;23;20019;-70
2023/07/26 01:33:06;;;;;;;5.55;5.25;;;;;;;12.94;100.00;100579.09;6166004;23;20049;-71
2023/07/26 01:35:35;;;;;;;5.30;5.00;;;;;;;12.77;100.00;100551.19;6189820;23;20412;-70
2023/07/26 01:38:01;;;;;;;5.65;5.20;;;;;;;12.93;100.00;100577.41;6148415;23;20092;-69
2023/07/26 01:40:28;;;;;;;5.80;5.40;;;;;;;12.94;100.00;100573.81;6174224;23;20016;-69
2023/07/26 01:42:56;;;;;;;5.40;5.10;;;;;;;12.89;100.00;100573.25;6151567;23;20570;-69
2023/07/26 01:45:22;;;;;;;6.18;5.78;;;;;;;12.58;100.00;100519.91;6191245;23;20616;-70
2023/07/26 01:47:50;;;;;;;6.25;5.40;;;;;;;12.30;100.00;100478.72;6175136;23;20028;-69
2023/07/26 01:50:17;;;;;;;5.53;5.22;;;;;;;12.93;99.80;100570.34;6141372;23;20538;-69
2023/07/26 01:52:43;;;;;;;6.13;5.72;;;;;;;12.01;99.71;100422.66;6177061;23;20005;-69
2023/07/26 01:55:09;;;;;;;5.78;5.47;;;;;;;12.44;100.00;100491.84;6144186;23;20092;-70
2023/07/26 01:57:36;;;;;;;6.13;5.47;;;;;;;12.64;100.00;100550.28;6171727;23;20465;-70
2023/07/26 02:00:04;;;;;;;6.32;5.93;;;;;;;12.90;100.00;100582.84;6152998;23;20021;-70
2023/07/26 02:02:31;;;;;;;5.85;5.40;;;;;;;12.90;100.00;100585.50;6171793;23;20403;-70
2023/07/26 02:04:57;;;;;;;5.43;5.13;;;;;;;12.73;100.00;100550.53;6156908;23;20711;-69
2023/07/26 02:07:23;;;;;;;5.80;5.50;;;;;;;12.93;100.00;100587.94;6172397;23;20040;-69
2023/07/26 02:09:50;;;;;;;7.32;5.88;;;;;;;12.88;100.00;100580.31;6140458;23;20009;-70
2023/07/26 02:12:16;;;;;;;5.70;5.35;;;;;;;12.91;100.00;100588.03;6153196;23;20028;-70
2023/07/26 02:14:43;;;;;;;5.78;5.38;;;;;;;12.89;100.00;100597.81;6170150;23;20576;-70
2023/07/26 02:17:09;;;;;;;10.00;5.80;;;;;;;12.91;100.00;100597.69;6139934;23;20021;-70
2023/07/26 02:19:35;;;;;;;5.60;5.25;;;;;;;12.91;100.00;100595.94;6173639;23;20026;-70
2023/07/26 02:22:02;;;;;;;6.10;5.70;;;;;;;12.92;100.00;100597.59;6166567;23;20517;-70
2023/07/26 02:24:33;;;;;;;7.18;5.30;;;;;;;12.87;100.00;100593.56;6152380;23;20013;-70
2023/07/26 02:26:59;;;;;;;5.15;4.95;;;;;;;12.62;100.00;100565.31;6164024;23;20672;-69
2023/07/26 02:29:26;;;;;;;5.53;5.22;;;;;;;12.54;100.00;100537.69;6144196;23;20029;-70
2023/07/26 02:31:52;;;;;;;5.60;5.30;;;;;;;12.97;100.00;100599.97;6172343;23;20024;-71
2023/07/26 02:34:18;;;;;;;5.65;5.35;;;;;;;12.82;100.00;100574.59;6144724;23;20036;-69
2023/07/26 02:36:45;;;;;;;5.50;5.20;;;;;;;12.97;100.00;100592.91;6148395;23;20084;-71
2023/07/26 02:39:11;;;;;;;5.82;5.47;;;;;;;12.95;100.00;100596.59;6166183;23;20047;-69
2023/07/26 02:41:38;;;;;;;5.57;5.15;;;;;;;12.53;100.00;100527.28;6145552;23;20016;-69
2023/07/26 02:44:04;;;;;;;5.63;5.32;;;;;;;12.98;100.00;100591.13;6174470;23;20607;-70
2023/07/26 02:46:31;;;;;;;5.35;5.05;;;;;;;12.92;100.00;100588.88;6172055;23;20020;-70
2023/07/26 02:48:57;;;;;;;5.43;5.13;;;;;;;12.95;100.00;100597.44;6152529;23;20099;-71
2023/07/26 02:51:23;;;;;;;5.65;5.35;;;;;;;12.92;100.00;100604.69;6176063;23;20031;-69
2023/07/26 02:53:50;;;;;;;5.68;5.38;;;;;;;12.92;100.00;100604.69;6174357;23;20083;-70
2023/07/26 02:56:16;;;;;;;5.97;5.40;;;;;;;12.89;100.00;100600.47;6167165;23;20054;-69
2023/07/26 02:58:43;;;;;;;5.53;5.18;;;;;;;12.90;100.00;100602.13;6142939;23;20076;-69
2023/07/26 03:01:09;;;;;;;6.00;5.60;;;;;;;12.78;100.00;100585.31;6169264;23;20040;-71
2023/07/26 03:03:35;;;;;;;5.75;5.40;;;;;;;12.87;100.00;100602.34;6141019;23;20077;-69
2023/07/26 03:06:02;;;;;;;5.50;5.20;;;;;;;12.87;100.00;100604.09;6174208;23;20077;-70
2023/07/26 03:08:28;;;;;;;5.88;5.47;;;;;;;12.43;100.00;100537.53;6149956;23;20098;-70
2023/07/26 03:10:55;;;;;;;5.45;5.15;;;;;;;12.95;100.00;100617.66;6171686;23;20027;-70
2023/07/26 03:13:21;;;;;;;5.68;5.28;;;;;;;12.86;100.00;100615.59;6172255;23;20026;-71
2023/07/26 03:15:48;;;;;;;5.95;5.60;;;;;;;12.42;100.00;100527.94;6166624;23;20053;-69
2023/07/26 03:18:15;;;;;;;5.43;5.13;;;;;;;12.95;100.00;100622.94;6173046;23;20085;-70
2023/07/26 03:20:46;;;;;;;5.93;5.47;;;;;;;12.94;100.00;100619.44;6172378;23;20228;-71
2023/07/26 03:23:13;;;;;;;5.97;5.60;;;;;;;12.61;100.00;100568.88;6152202;23;20056;-69
2023/07/26 03:25:42;;;;;;;5.28;4.97;;;;;;;12.92;100.00;100629.22;6144560;23;20013;-69
2023/07/26 03:28:08;;;;;;;5.60;5.30;;;;;;;12.89;100.00;100626.78;6196167;23;20423;-70
2023/07/26 03:30:35;;;;;;;5.75;5.35;;;;;;;12.57;100.00;100576.16;6170159;23;20019;-70
2023/07/26 03:33:01;;;;;;;14.30;5.50;;;;;;;12.86;100.00;100626.13;6144358;23;20088;-69
2023/07/26 03:35:27;;;;;;;6.25;5.63;;;;;;;12.94;100.00;100637.03;6170581;23;20031;-69
2023/07/26 03:37:56;;;;;;;5.68;5.38;;;;;;;12.88;100.00;100638.25;6154802;23;20604;-69
2023/07/26 03:40:22;;;;;;;5.80;5.47;;;;;;;12.67;100.00;100602.72;6194043;23;20028;-70
2023/07/26 03:42:49;;;;;;;5.68;5.28;;;;;;;12.98;100.00;100664.88;6147141;23;20872;-70
2023/07/26 03:45:15;;;;;;;6.03;5.63;;;;;;;12.65;100.00;100618.66;6166436;23;20016;-70
2023/07/26 03:47:42;;;;;;;6.65;5.50;;;;;;;12.94;100.00;100672.13;6174292;23;21373;-70
2023/07/26 03:50:09;;;;;;;6.45;5.95;;;;;;;12.85;100.00;100674.47;6190113;23;20450;-70
2023/07/26 03:52:35;;;;;;;6.13;5.53;;;;;;;12.88;100.00;100705.91;6173039;23;20027;-70
2023/07/26 03:55:01;;;;;;;5.63;5.32;;;;;;;12.87;100.00;100709.47;6182104;23;20015;-70
2023/07/26 03:57:28;;;;;;;6.25;5.65;;;;;;;12.62;100.00;100695.16;6173122;23;20424;-70
2023/07/26 03:59:54;;;;;;;6.28;5.78;;;;;;;12.47;100.00;100675.03;6166198;23;20028;-71
2023/07/26 04:02:21;;;;;;;7.32;6.18;;;;;;;12.80;100.00;100743.25;6174858;23;20020;-71
2023/07/26 04:04:48;;;;;;;5.95;5.55;;;;;;;12.76;100.00;100765.44;6140421;23;20025;-70
2023/07/26 04:07:14;;;;;;;6.55;6.05;;;;;;;12.75;100.00;100761.97;6167615;23;21253;-70
2023/07/26 04:09:40;;;;;;;5.93;5.53;;;;;;;12.65;100.00;100758.19;6150542;23;20170;-70
2023/07/26 04:12:07;;;;;;;6.35;5.88;;;;;;;12.57;100.00;100747.28;6166062;23;20023;-71
2023/07/26 04:14:33;;;;;;;6.05;5.70;;;;;;;12.30;100.00;100700.56;6168090;23;20081;-71
2023/07/26 04:17:00;;;;;;;6.93;6.32;;;;;;;12.47;100.00;100733.81;6162167;23;21146;-70
2023/07/26 04:19:26;;;;;;;6.15;5.75;;;;;;;12.44;100.00;100722.59;6139663;23;20146;-70
2023/07/26 04:21:53;;;;;;;6.18;5.78;;;;;;;12.43;100.00;100728.78;6168474;23;20767;-70
2023/07/26 04:24:19;;;;;;;5.63;5.32;;;;;;;12.41;100.00;100726.28;6144918;23;20024;-71
2023/07/26 04:26:46;;;;;;;6.25;5.85;;;;;;;12.41;100.00;100728.91;6141704;23;20044;-70
2023/07/26 04:29:12;;;;;;;6.15;5.75;;;;;;;12.41;100.00;100730.66;6167490;23;20040;-70
2023/07/26 04:31:38;;;;;;;6.05;5.65;;;;;;;12.42;100.00;100727.94;6140826;23;20023;-71
2023/07/26 04:34:05;;;;;;;6.53;6.03;;;;;;;12.43;100.00;100732.28;6168071;23;20031;-70
2023/07/26 04:36:31;;;;;;;5.72;5.28;;;;;;;12.44;100.00;100744.50;6168424;23;20106;-72
2023/07/26 04:39:00;;;;;;;5.57;5.28;;;;;;;11.63;100.00;100623.81;6145917;23;20033;-71
2023/07/26 04:41:27;;;;;;;5.57;5.18;;;;;;;12.41;100.00;100733.31;6167287;23;20020;-70
2023/07/26 04:43:53;;;;;;;6.00;5.60;;;;;;;12.13;100.00;100682.34;6144626;23;20109;-70
2023/07/26 04:46:20;;;;;;;5.75;5.35;;;;;;;12.28;100.00;100707.72;6169427;23;20538;-70
2023/07/26 04:48:46;;;;;;;5.35;5.05;;;;;;;12.54;100.00;100742.19;6171366;23;20024;-70
2023/07/26 04:51:13;;;;;;;5.63;5.22;;;;;;;12.44;100.00;100733.97;6136884;23;20076;-71
2023/07/26 04:53:39;;;;;;;5.40;5.10;;;;;;;12.48;100.00;100726.75;6170157;23;20079;-70
2023/07/26 04:56:06;;;;;;;6.13;5.63;;;;;;;12.37;100.00;100696.66;6167765;23;20022;-70
2023/07/26 04:58:32;;;;;;;5.53;5.22;;;;;;;12.69;100.00;100746.53;6169574;23;20672;-70
2023/07/26 05:00:59;;;;;;;6.20;5.68;;;;;;;12.15;100.00;100646.25;6167781;23;20115;-71
2023/07/26 05:03:25;;;;;;;5.32;5.03;;;;;;;12.83;100.00;100750.09;6153212;23;20029;-70
2023/07/26 05:05:52;;;;;;;5.50;5.10;;;;;;;12.71;100.00;100722.75;6168404;23;20031;-71
2023/07/26 05:08:19;;;;;;;6.30;5.32;;;;;;;12.97;100.00;100752.75;6144489;23;20013;-71
2023/07/26 05:10:50;;;;;;;5.40;5.10;;;;;;;12.86;100.00;100750.75;6168913;23;20046;-71
2023/07/26 05:13:21;;;;;;;5.32;5.03;;;;;;;12.87;100.00;100751.59;6142984;23;20029;-70
2023/07/26 05:15:48;;;;;;;5.43;5.13;;;;;;;12.72;100.00;100722.63;6189282;23;20039;-70
2023/07/26 05:18:14;;;;;;;5.55;5.25;;;;;;;12.52;100.00;100697.50;6144744;23;20454;-70
2023/07/26 05:20:44;;;;;;;5.50;5.20;;;;;;;12.54;100.00;100702.69;6166045;23;20065;-69
2023/07/26 05:23:11;;;;;;;5.40;5.10;;;;;;;12.87;100.00;100747.22;6140251;23;20025;-69
2023/07/26 05:25:40;;;;;;;5.90;4.78;;;;;;;12.67;100.00;100716.81;6169201;23;20133;-69
2023/07/26 05:28:06;;;;;;;5.25;4.95;;;;;;;12.91;100.00;100753.09;6145487;23;20111;-69
2023/07/26 05:30:40;;;;;;;5.00;4.80;;;;;;;12.91;100.00;100743.44;6167525;23;20712;-70
2023/07/26 05:33:08;;;;;;;5.40;5.10;;;;;;;12.70;100.00;100702.59;6139681;23;20041;-70
2023/07/26 05:35:34;;;;;;;5.70;5.40;;;;;;;13.11;100.00;100746.63;6144246;23;20013;-71
2023/07/26 05:38:01;;;;;;;5.13;4.93;;;;;;;13.25;100.00;100759.81;6165048;23;20103;-72
2023/07/26 05:40:30;;;;;;;5.60;5.30;;;;;;;13.27;100.00;100757.91;6140429;23;20040;-71
2023/07/26 05:42:57;;;;;;;5.22;4.93;;;;;;;13.09;100.00;100724.78;6168948;23;20077;-71
2023/07/26 05:45:26;;;;;;;5.72;5.40;;;;;;;13.30;100.00;100754.25;6148592;23;20029;-70
2023/07/26 05:47:52;;;;;;;5.35;5.05;;;;;;;13.20;100.00;100726.75;6166281;23;20020;-70
2023/07/26 05:50:19;;;;;;;5.38;5.07;;;;;;;13.55;100.00;100791.34;6170575;23;20024;-70
2023/07/26 05:52:47;;;;;;;5.50;5.20;;;;;;;13.46;100.00;100738.34;6144631;23;20027;-71
2023/07/26 05:55:15;;;;;;;6.10;5.70;;;;;;;13.29;100.00;100720.91;6159819;23;20012;-70
2023/07/26 05:57:41;;;;;;;5.82;5.32;;;;;;;13.86;100.00;100768.25;6167618;23;20024;-70
2023/07/26 06:00:08;;;;;;;5.60;5.20;;;;;;;13.96;100.00;100750.03;6149162;23;20033;-71
2023/07/26 06:02:35;;;;;;;5.43;5.13;;;;;;;13.75;100.00;100681.06;6175137;23;20566;-71
2023/07/26 06:05:01;;;;;;;5.72;5.43;;;;;;;14.81;100.00;100760.22;6160612;23;20074;-71
2023/07/26 06:07:27;;;;;;;5.75;5.45;;;;;;;14.75;100.00;100661.09;6172062;23;20972;-71
2023/07/26 06:09:54;;;;;;;5.60;5.30;;;;;;;15.81;100.00;100722.25;6148187;23;20040;-71
2023/07/26 06:12:20;;;;;;;5.70;5.40;;;;;;;16.25;100.00;100701.38;6175712;23;20020;-70
2023/07/26 06:14:47;;;;;;;5.70;5.40;;;;;;;16.86;100.00;100690.53;6141825;23;20119;-70
2023/07/26 06:17:13;;;;;;;5.90;5.60;;;;;;;16.73;100.00;100635.78;6168787;23;20035;-70
2023/07/26 06:19:40;;;;;;;5.63;5.32;;;;;;;16.28;100.00;100550.19;6142408;23;20036;-71
2023/07/26 06:22:06;;;;;;;6.22;5.82;;;;;;;16.46;98.55;100587.66;6172473;23;20095;-71
2023/07/26 06:24:33;;;;;;;6.03;5.63;;;;;;;16.15;96.64;100564.38;6139731;23;20024;-71
2023/07/26 06:26:59;;;;;;;6.05;5.65;;;;;;;16.15;98.86;100632.38;6169529;23;20028;-70
2023/07/26 06:29:26;;;;;;;6.25;5.82;;;;;;;15.93;100.00;100626.06;6145040;23;20008;-70
2023/07/26 06:31:52;;;;;;;6.45;5.95;;;;;;;16.17;100.00;100664.88;6146716;23;20028;-70
2023/07/26 06:34:19;;;;;;;6.47;5.97;;;;;;;16.00;100.00;100675.91;6193736;23;20025;-70
2023/07/26 06:36:46;;;;;;;5.82;5.53;;;;;;;15.85;100.00;100660.22;6172462;23;20036;-71
2023/07/26 06:39:13;;;;;;;6.10;5.70;;;;;;;15.98;100.00;100686.63;6153106;23;20037;-70
2023/07/26 06:41:39;;;;;;;6.28;5.88;;;;;;;16.27;100.00;100694.97;6169204;23;20039;-69
2023/07/26 06:44:06;;;;;;;6.10;5.70;;;;;;;16.42;100.00;100689.50;6148664;23;20032;-70
2023/07/26 06:46:33;;;;;;;7.43;6.70;;;;;;;16.70;100.00;100686.38;6156955;23;20051;-70
2023/07/26 06:49:01;;;;;;;6.30;5.90;;;;;;;16.79;99.71;100668.91;6153529;23;20081;-70
2023/07/26 06:51:28;;;;;;;6.30;5.90;;;;;;;17.06;98.72;100665.91;6167445;23;20024;-70
2023/07/26 06:53:54;;;;;;;6.80;6.13;;;;;;;17.00;96.48;100631.09;6156259;23;20021;-70
2023/07/26 06:56:21;;;;;;;8.98;6.38;;;;;;;16.99;96.20;100617.00;6150405;23;20024;-70
2023/07/26 06:58:51;;;;;;;6.50;6.10;;;;;;;17.05;96.81;100627.09;6173120;23;20025;-70
2023/07/26 07:01:18;;;;;;;7.20;6.70;;;;;;;17.04;94.84;100636.03;6172722;23;20033;-72
2023/07/26 07:03:44;;;;;;;7.07;6.57;;;;;;;17.24;95.07;100646.81;6146128;23;20013;-70
2023/07/26 07:06:12;;;;;;;7.35;6.70;;;;;;;17.27;93.36;100607.63;6173137;23;20521;-70
2023/07/26 07:08:38;;;;;;;6.63;6.13;;;;;;;17.59;92.22;100619.22;6143741;23;20421;-70
2023/07/26 07:11:05;;;;;;;6.55;6.07;;;;;;;17.45;89.97;100551.38;6169216;23;20020;-69
2023/07/26 07:13:36;;;;;;;7.40;6.72;;;;;;;17.59;88.56;100574.13;6136926;23;20021;-71
2023/07/26 07:16:06;;;;;;;7.70;6.80;;;;;;;17.35;88.63;100544.19;6173093;23;20114;-72
2023/07/26 07:18:33;;;;;;;6.80;6.40;;;;;;;17.66;88.44;100580.56;6144736;23;20031;-69
2023/07/26 07:21:00;;;;;;;7.85;7.07;;;;;;;18.02;87.32;100594.41;6193651;23;20025;-70
2023/07/26 07:23:29;;;;;;;7.20;6.70;;;;;;;18.06;85.93;100579.88;6174374;23;20016;-70
2023/07/26 07:25:56;;;;;;;7.40;6.80;;;;;;;17.99;82.22;100507.03;6047362;23;20107;-70
2023/07/26 07:28:23;;;;;;;7.45;6.88;;;;;;;18.05;84.38;100562.28;6149089;23;20101;-69
2023/07/26 07:30:49;;;;;;;9.55;6.65;;;;;;;18.23;84.46;100573.13;6141911;23;20097;-69
2023/07/26 07:33:16;;;;;;;7.35;6.85;;;;;;;18.14;83.02;100549.06;6174102;23;20004;-69
2023/07/26 07:35:43;;;;;;;7.22;6.72;;;;;;;18.13;82.63;100534.06;6150743;23;20033;-69
2023/07/26 07:38:09;;;;;;;6.90;6.40;;;;;;;18.26;82.81;100549.81;6172141;23;20260;-69
2023/07/26 07:40:36;;;;;;;7.60;6.93;;;;;;;18.27;82.05;100497.50;6136154;23;20084;-70
2023/07/26 07:43:03;;;;;;;7.10;6.60;;;;;;;18.25;81.92;100520.72;6171645;23;20028;-69
2023/07/26 07:45:30;;;;;;;7.25;6.65;;;;;;;18.61;81.92;100551.19;6141594;23;20035;-70
2023/07/26 07:47:56;;;;;;;7.35;6.55;;;;;;;18.54;79.21;100464.97;6173430;23;20024;-68
2023/07/26 07:50:23;;;;;;;7.28;6.70;;;;;;;18.50;79.76;100458.25;6168058;23;20529;-69
2023/07/26 07:52:49;;;;;;;8.00;6.80;;;;;;;18.96;78.93;100514.47;6172506;23;20032;-68
2023/07/26 07:55:15;;;;;;;6.75;6.35;;;;;;;19.04;79.32;100518.13;6142516;23;20167;-69
2023/07/26 07:57:42;;;;;;;6.75;6.35;;;;;;;18.53;78.44;100471.28;6169095;23;20029;-69
2023/07/26 08:00:11;;;;;;;7.25;6.75;;;;;;;18.78;79.99;100522.25;6140627;23;20016;-70
2023/07/26 08:02:37;;;;;;;12.35;6.80;;;;;;;18.49;79.49;100449.44;6163709;23;20625;-70
2023/07/26 08:05:04;;;;;;;7.25;6.57;;;;;;;18.82;78.01;100463.38;6155504;23;20056;-70
2023/07/26 08:07:30;;;;;;;7.68;7.07;;;;;;;19.33;78.14;100509.28;6166724;23;20091;-70
2023/07/26 08:09:59;;;;;;;7.60;6.90;;;;;;;19.12;74.31;100403.03;6140648;23;20017;-71
2023/07/26 08:12:25;;;;;;;8.25;6.47;;;;;;;19.05;75.41;100413.41;6166850;23;20020;-69
2023/07/26 08:14:52;;;;;;;7.18;6.57;;;;;;;19.48;73.21;100404.06;6169044;23;20012;-70
2023/07/26 08:17:18;;;;;;;6.95;6.55;;;;;;;19.30;73.83;100401.31;6162466;23;20358;-71
2023/07/26 08:19:48;;;;;;;7.05;6.30;;;;;;;19.67;74.10;100423.63;6143477;23;20017;-69
2023/07/26 08:22:14;;;;;;;8.27;6.50;;;;;;;20.28;72.00;100436.38;6170902;23;20047;-70
2023/07/26 08:24:41;;;;;;;7.00;6.50;;;;;;;20.39;70.43;100415.84;6168114;23;20032;-70
2023/07/26 08:27:08;;;;;;;9.93;7.00;;;;;;;20.28;70.50;100391.06;6140857;23;20466;-71
2023/07/26 08:29:34;;;;;;;7.90;7.30;;;;;;;20.49;70.69;100411.28;6142018;23;20052;-69
2023/07/26 08:32:01;;;;;;;7.28;6.75;;;;;;;20.68;68.32;100386.31;6166882;23;20416;-67
2023/07/26 08:34:27;;;;;;;10.25;6.70;;;;;;;20.52;66.40;100299.84;6143214;23;20207;-66
2023/07/26 08:36:54;;;;;;;7.13;6.55;;;;;;;20.49;67.88;100355.31;6173018;23;20020;-67
2023/07/26 08:39:20;;;;;;;7.30;6.70;;;;;;;19.98;68.31;100290.19;6168595;23;20015;-69
2023/07/26 08:42:02;;;;;;;7.70;7.00;;;;;;;20.49;66.07;100308.16;6140248;23;20044;-67
2023/07/26 08:44:30;;;;;;;8.82;6.78;;;;;;;20.33;65.17;100265.38;6159383;23;20075;-67
2023/07/26 08:46:59;;;;;;;6.80;6.30;;;;;;;20.20;66.61;100305.72;6141380;23;20096;-67
2023/07/26 08:49:27;;;;;;;6.82;6.05;;;;;;;20.48;65.31;100310.97;6167272;23;20028;-71
2023/07/26 08:51:57;;;;;;;8.70;6.40;;;;;;;20.61;65.98;100335.44;6148537;23;20524;-67
2023/07/26 08:54:24;;;;;;;6.80;6.38;;;;;;;20.55;66.01;100330.69;6169192;23;20032;-67
2023/07/26 08:56:51;;;;;;;7.38;6.70;;;;;;;20.65;65.48;100306.66;6144747;23;20152;-69
2023/07/26 08:59:18;;;;;;;7.07;6.38;;;;;;;20.58;64.32;100262.91;6144940;23;20117;-68
2023/07/26 09:01:46;;;;;;;6.65;6.07;;;;;;;20.73;66.41;100357.38;6168621;23;20083;-67
2023/07/26 09:04:30;;;;;;;7.07;6.55;;;;;;;20.65;65.22;100285.31;6142148;23;20564;-68
2023/07/26 09:07:00;;;;;;;8.50;6.85;;;;;;;20.66;64.76;100273.66;6165333;23;20095;-68
2023/07/26 09:09:27;;;;;;;7.45;6.85;;;;;;;20.30;61.70;100111.94;6168042;23;20029;-67
2023/07/26 09:11:53;;;;;;;7.03;6.40;;;;;;;20.79;62.25;100233.22;6158145;23;20069;-68
2023/07/26 09:14:26;;;;;;;6.63;6.22;;;;;;;21.02;62.90;100293.03;6169556;23;20073;-67
2023/07/26 09:16:56;;;;;;;7.40;6.90;;;;;;;20.98;61.79;100217.00;6165950;23;20806;-68
2023/07/26 09:19:38;;;;;;;8.27;6.82;;;;;;;21.30;60.97;100226.97;6143341;23;20036;-68
2023/07/26 09:22:08;;;;;;;7.43;6.72;;;;;;;21.32;60.42;100224.13;6163795;23;20034;-68
2023/07/26 09:24:37;;;;;;;7.60;7.00;;;;;;;21.14;60.59;100188.72;6149053;23;20533;-68
2023/07/26 09:27:06;;;;;;;8.57;6.82;;;;;;;21.07;60.02;100192.03;6169596;23;20093;-68
2023/07/26 09:29:34;;;;;;;6.78;6.38;;;;;;;21.20;62.15;100274.28;6145615;23;20037;-68
2023/07/26 09:32:01;;;;;;;6.90;6.40;;;;;;;20.72;60.01;100105.84;6171435;23;20112;-68
2023/07/26 09:34:29;;;;;;;7.07;6.57;;;;;;;20.67;60.31;100164.19;6171788;23;20028;-70
2023/07/26 09:36:57;;;;;;;7.00;6.40;;;;;;;21.30;59.28;100213.63;6167954;23;20048;-68
2023/07/26 09:39:25;;;;;;;7.32;6.70;;;;;;;21.15;60.32;100212.59;6150607;23;20117;-68
2023/07/26 09:42:22;;;;;;;8.80;6.50;;;;;;;21.45;58.85;100203.19;6169198;23;20111;-68
2023/07/26 09:44:56;;;;;;;7.07;6.47;;;;;;;21.15;61.25;100265.94;6135246;23;20012;-69
2023/07/26 09:47:35;;;;;;;7.18;6.57;;;;;;;20.76;61.58;100242.38;6144503;23;20028;-68
2023/07/26 09:50:06;;;;;;;6.45;6.05;;;;;;;20.65;61.40;100248.00;6174189;23;20008;-68
2023/07/26 09:52:36;;;;;;;6.85;6.13;;;;;;;20.63;59.02;100172.66;6141840;23;20573;-68
2023/07/26 09:55:03;;;;;;;7.47;6.97;;;;;;;20.23;60.01;100179.38;6174922;23;20043;-68
2023/07/26 09:57:37;;;;;;;8.05;6.53;;;;;;;20.02;60.44;100199.16;6167063;23;20029;-69
2023/07/26 10:00:06;;;;;;;7.07;6.57;;;;;;;20.13;61.12;100249.56;6175863;23;20055;-68
2023/07/26 10:02:34;;;;;;;6.80;6.40;;;;;;;20.07;60.62;100215.53;6168124;23;20065;-68
2023/07/26 10:05:04;;;;;;;7.43;6.85;;;;;;;18.80;61.78;100095.78;6173657;23;20017;-67
2023/07/26 10:07:31;;;;;;;6.60;6.10;;;;;;;19.23;63.88;100269.00;6172751;23;20025;-68
2023/07/26 10:10:00;;;;;;;6.40;6.00;;;;;;;18.89;65.09;100296.16;6142189;23;20809;-69
2023/07/26 10:12:29;;;;;;;8.90;6.40;;;;;;;18.30;70.49;100444.97;6172022;23;20031;-68
2023/07/26 10:14:56;;;;;;;6.22;5.82;;;;;;;17.85;76.29;100529.47;6141115;23;20896;-69
2023/07/26 10:17:25;;;;;;;6.68;6.28;;;;;;;17.61;73.61;100569.53;6169595;23;20036;-68
2023/07/26 10:19:52;;;;;;;6.53;6.10;;;;;;;17.73;72.06;100579.09;6173625;23;20088;-69
2023/07/26 10:22:20;;;;;;;7.30;6.80;;;;;;;17.72;82.37;100546.41;6164920;23;20025;-69
2023/07/26 10:24:46;;;;;;;6.65;6.25;;;;;;;17.19;83.26;100558.84;6146389;23;20702;-68
2023/07/26 10:27:13;;;;;;;6.35;5.88;;;;;;;17.89;83.03;100648.53;6146919;23;20143;-70
2023/07/26 10:29:40;;;;;;;6.85;6.22;;;;;;;17.87;82.84;100639.88;6171412;23;20032;-69
2023/07/26 10:32:07;;;;;;;6.45;6.05;;;;;;;17.54;84.82;100643.50;6141337;23;20021;-69
2023/07/26 10:34:34;;;;;;;6.32;5.93;;;;;;;17.22;85.84;100662.88;6172810;23;20032;-69
2023/07/26 10:37:20;;;;;;;7.10;6.57;;;;;;;16.89;88.97;100688.44;6149222;23;20033;-69
2023/07/26 10:39:48;;;;;;;7.10;6.57;;;;;;;16.33;91.34;100686.56;6161459;23;20051;-69
2023/07/26 10:42:26;;;;;;;7.35;6.85;;;;;;;15.70;96.80;100669.28;6169755;23;20020;-69
2023/07/26 10:44:55;;;;;;;7.57;6.78;;;;;;;15.39;100.00;100726.22;6167328;23;20600;-68
2023/07/26 10:47:21;;;;;;;7.55;6.90;;;;;;;15.54;100.00;100740.97;6149112;23;20040;-68
2023/07/26 10:49:48;;;;;;;7.20;6.70;;;;;;;15.32;100.00;100680.88;6170904;23;20415;-69
2023/07/26 10:52:15;;;;;;;7.00;6.50;;;;;;;15.04;100.00;100663.50;6174900;23;20028;-69
2023/07/26 10:54:51;;;;;;;7.43;6.63;;;;;;;15.68;100.00;100747.91;6141608;23;20581;-68
2023/07/26 10:57:32;;;;;;;10.95;6.50;;;;;;;15.94;100.00;100751.31;6167809;23;20020;-69
2023/07/26 10:59:59;;;;;;;7.88;7.28;;;;;;;15.97;100.00;100713.19;6136591;23;20013;-69
2023/07/26 11:02:36;;;;;;;7.30;6.72;;;;;;;16.38;100.00;100743.63;6166245;23;20028;-69
2023/07/26 11:05:05;;;;;;;6.85;6.45;;;;;;;16.55;100.00;100728.16;6135297;23;20020;-68
2023/07/26 11:07:58;;;;;;;7.07;6.57;;;;;;;16.61;97.89;100650.00;6170023;23;20045;-69
2023/07/26 11:10:44;;;;;;;;;;;;;;;17.40;92.33;100668.50;6142900;23;20025;-69
2023/07/26 11:13:13;;;;;;;6.13;5.82;;;;;;;17.79;80.91;100540.59;6142317;23;19919;-69
2023/07/26 11:15:41;;;;;;;6.57;6.18;;;;;;;17.87;78.40;100463.81;6140399;23;20025;-68
2023/07/26 11:18:28;;;;;;;6.60;6.20;;;;;;;18.31;71.21;100340.34;6169272;23;20012;-69
2023/07/26 11:20:55;;;;;;;6.30;5.93;;;;;;;18.81;71.44;100384.59;6141162;23;20025;-69
2023/07/26 11:23:26;;;;;;;7.68;7.18;;;;;;;19.61;71.06;100464.97;6164845;23;20025;-69
2023/07/26 11:25:56;;;;;;;6.97;6.47;;;;;;;18.92;68.62;100282.53;6167752;23;20058;-69